Miramar Marine Corps Air Station
KNKX : now visible

Airfield :











YOU CAN JOIN US ON...

 
LOGIN :

Register | Disclaimer

   EN    FR    IT 

 









Legend :    VFR   Marginal VFR   IFR   Intensive IFR   Very Intensive IFR
Visi :
Ceiling :
>= 8 km
>= 3000ft
5 to 8 km
1000 to 3000 ft
1500m to 5 km
500 to 1000 ft
800 to 1500m
200 to 500 ft
< 800m
< 200 ft
Symbols :   Thunderstorms  Fog  Heavy snow  Heavy precipitations  Wind > 20 kt






- Airport Elevation : 477 ft


KNKX - Miramar Marine Corps Air Station

CURRENT METAR :
  • 141755Z 27004KT 10SM CLR 26/16 A2998 RMK AO2 SLP147 T02610161 10267 20206 51007 $

EXPIRED METARs :
  • 141655Z VRB05KT 10SM FEW020 24/17 A2998 RMK AO2 SLP145 T02440167 $
  • 141555Z 21005KT 10SM FEW020 24/17 A2998 RMK AO2 SLP146 T02390167 $
  • 141545Z VRB04KT 10SM SCT018 24/17 A2997 RMK AO2 T02390167 $

TAF TAF KNKX
Valid from the 14 at 15:00 until the 15 at 15:00 UTC


1415/1515 VRB05KT 9999 OVC015 QNH2993INS
BECMG 1420/1422 25008KT 9999 FEW015 QNH2991INS
BECMG 1503/1505 25014KT 9999 BKN015 QNH2992INS T24/1421Z T18/1410Z
KZLA FIR / North America



MET'MAP, your aeronautical weather chart ! - Copyright ORBIFLY December 2007 - Disclaimer

ORBIFLY MET'MAP TEAM :

Programming & Development : Alexandra Zaïnal
Concept & original design : Baudouin d'Aumeries
Assistance for programming : Marc-Olivier Méhu
Technical & hardware support : Manuel Goepfert

Contact : metmap@orbifly.com




SOURCES & CREDITS :

   NOAA       Earth
Advisory